Time;durP1;ratioP1;P1;durP2;ratioP2;P2;SDS_P1;SDS_P2;PMS_P1;PMS_P2;Temp;Humidity;BMP_temperature;BMP_pressure;BME280_temperature;BME280_humidity;BME280_pressure;Samples;Min_cycle;Max_cycle;Signal;HPM_P1;HPM_P2
2022/04/27 00:01:40;;;;;;;16.33;8.60;;;;;;;5.62;80.54;102330.56;5072147;28;20052;-72
2022/04/27 00:04:05;;;;;;;17.92;8.85;;;;;;;5.61;80.41;102332.28;5091514;28;20081;-72
2022/04/27 00:06:30;;;;;;;12.82;8.57;;;;;;;5.62;80.98;102330.56;5091408;28;20031;-72
2022/04/27 00:08:56;;;;;;;11.77;8.68;;;;;;;5.59;81.07;102326.22;5088853;28;20024;-72
2022/04/27 00:11:21;;;;;;;15.18;8.80;;;;;;;5.54;81.38;102319.19;5091603;28;20066;-72
2022/04/27 00:13:47;;;;;;;12.75;8.95;;;;;;;5.52;81.31;102326.03;5079497;28;20027;-72
2022/04/27 00:16:12;;;;;;;11.95;9.02;;;;;;;5.48;81.39;102319.06;5089638;28;20032;-72
2022/04/27 00:18:38;;;;;;;16.35;9.07;;;;;;;5.49;81.60;102321.66;5092814;28;20028;-72
2022/04/27 00:21:03;;;;;;;15.68;9.68;;;;;;;5.43;81.76;102313.81;5093675;28;20463;-72
2022/04/27 00:23:30;;;;;;;13.85;10.30;;;;;;;5.39;81.58;102318.03;5095058;28;20062;-72
2022/04/27 00:25:55;;;;;;;17.75;10.38;;;;;;;5.33;82.14;102304.06;5095786;28;20028;-72
2022/04/27 00:28:21;;;;;;;14.75;10.07;;;;;;;5.17;82.76;102297.72;5077966;28;20446;-72
2022/04/27 00:30:46;;;;;;;16.67;10.45;;;;;;;5.18;82.80;102317.56;5078366;28;20030;-72
2022/04/27 00:33:11;;;;;;;18.27;10.50;;;;;;;5.16;83.24;102316.66;5088483;28;20103;-72
2022/04/27 00:35:37;;;;;;;13.25;9.57;;;;;;;5.20;83.42;102320.16;5076125;28;20365;-72
2022/04/27 00:38:02;;;;;;;18.17;10.57;;;;;;;5.22;84.10;102319.38;5084107;28;20024;-72
2022/04/27 00:40:28;;;;;;;17.17;10.68;;;;;;;5.24;83.85;102327.19;5086851;28;20025;-72
2022/04/27 00:42:53;;;;;;;16.92;10.95;;;;;;;5.24;84.33;102327.19;5074703;28;20559;-71
2022/04/27 00:45:18;;;;;;;15.23;11.35;;;;;;;5.23;84.52;102326.31;5087823;28;20032;-72
2022/04/27 00:47:43;;;;;;;14.13;10.70;;;;;;;5.18;84.62;102324.44;5085875;28;20383;-72
2022/04/27 00:50:09;;;;;;;14.85;10.32;;;;;;;5.10;84.58;102329.44;5092441;28;20024;-72
2022/04/27 00:52:35;;;;;;;16.92;10.70;;;;;;;5.07;85.04;102334.56;5093083;28;20032;-72
2022/04/27 00:55:01;;;;;;;16.58;9.70;;;;;;;4.99;85.22;102333.50;5084015;28;20024;-72
2022/04/27 00:57:26;;;;;;;15.02;9.75;;;;;;;4.96;85.11;102331.69;5090411;28;20567;-72
2022/04/27 00:59:53;;;;;;;14.77;10.05;;;;;;;4.89;85.55;102341.03;5089312;28;20031;-72
2022/04/27 01:02:19;;;;;;;13.95;9.60;;;;;;;4.86;85.54;102335.78;5077620;28;20024;-72
2022/04/27 01:04:44;;;;;;;14.65;9.32;;;;;;;4.82;85.84;102338.25;5094242;28;20111;-72
2022/04/27 01:07:11;;;;;;;15.10;9.68;;;;;;;4.81;86.01;102339.13;5092831;28;20031;-72
2022/04/27 01:09:37;;;;;;;16.20;9.57;;;;;;;4.74;85.71;102337.19;5092731;28;20081;-72
2022/04/27 01:12:03;;;;;;;13.93;10.05;;;;;;;4.68;86.24;102340.53;5078963;28;20423;-72
2022/04/27 01:14:28;;;;;;;17.75;10.15;;;;;;;4.67;86.45;102337.03;5092880;28;20036;-71
2022/04/27 01:16:57;;;;;;;15.48;8.90;;;;;;;4.68;86.50;102343.97;5081641;28;20024;-72
2022/04/27 01:19:26;;;;;;;14.52;9.40;;;;;;;4.62;86.60;102340.38;5073508;28;20086;-72
2022/04/27 01:21:52;;;;;;;17.42;10.07;;;;;;;4.62;86.74;102342.94;5087146;28;20399;-72
2022/04/27 01:24:22;;;;;;;15.27;9.88;;;;;;;4.60;86.46;102342.03;5094373;28;20027;-72
2022/04/27 01:26:51;;;;;;;17.15;9.98;;;;;;;4.57;86.72;102342.81;5092451;28;20028;-72
2022/04/27 01:29:17;;;;;;;15.60;10.35;;;;;;;4.55;86.85;102349.66;5084160;28;20476;-72
2022/04/27 01:31:43;;;;;;;14.45;11.07;;;;;;;4.53;87.22;102353.91;5082124;28;20082;-72
2022/04/27 01:34:09;;;;;;;16.58;10.25;;;;;;;4.50;87.22;102351.25;5073248;28;20033;-72
2022/04/27 01:36:34;;;;;;;18.67;11.40;;;;;;;4.44;86.78;102356.25;5086294;28;20027;-72
2022/04/27 01:39:00;;;;;;;20.45;11.70;;;;;;;4.46;87.03;102359.75;5082024;28;20039;-72
2022/04/27 01:41:25;;;;;;;16.60;10.90;;;;;;;4.38;86.96;102349.25;5079813;28;20032;-72
2022/04/27 01:43:50;;;;;;;16.30;11.00;;;;;;;4.40;86.75;102357.00;5079330;28;20036;-72
2022/04/27 01:46:16;;;;;;;17.60;10.57;;;;;;;4.36;87.40;102358.63;5077970;28;20115;-72
2022/04/27 01:48:41;;;;;;;20.58;10.88;;;;;;;4.29;87.85;102356.75;5081169;28;20028;-71
2022/04/27 01:51:07;;;;;;;14.35;11.05;;;;;;;4.27;87.97;102367.84;5081003;28;20052;-72
2022/04/27 01:56:16;;;;;;;19.08;12.07;;;;;;;4.16;87.64;102359.81;5087491;28;20074;-71
2022/04/27 01:58:42;;;;;;;16.88;11.50;;;;;;;4.09;88.20;102368.25;5092829;28;20055;-71
2022/04/27 02:01:11;;;;;;;19.17;12.43;;;;;;;4.04;88.81;102364.66;5090082;28;20066;-72
2022/04/27 02:03:36;;;;;;;17.83;12.52;;;;;;;4.04;88.96;102362.06;5074344;28;20028;-72
2022/04/27 02:06:02;;;;;;;18.25;12.70;;;;;;;3.98;89.09;102362.75;5073721;28;20491;-71
2022/04/27 02:08:27;;;;;;;19.27;12.73;;;;;;;3.96;89.18;102364.44;5074115;28;20043;-71
2022/04/27 02:10:52;;;;;;;22.95;12.60;;;;;;;3.92;89.13;102355.75;5073517;28;20020;-71
2022/04/27 02:13:18;;;;;;;21.35;13.10;;;;;;;3.93;89.52;102366.94;5088169;28;20039;-71
2022/04/27 02:15:43;;;;;;;16.88;11.65;;;;;;;3.89;89.58;102363.41;5092366;28;20077;-71
2022/04/27 02:18:08;;;;;;;19.27;13.05;;;;;;;3.91;89.16;102374.63;5093452;28;20051;-71
2022/04/27 02:20:34;;;;;;;17.80;12.88;;;;;;;3.96;89.78;102372.19;5085886;28;20020;-71
2022/04/27 02:23:00;;;;;;;19.17;12.23;;;;;;;3.99;89.87;102370.56;5073765;28;20399;-71
2022/04/27 02:25:25;;;;;;;19.17;12.88;;;;;;;4.04;89.78;102377.56;5073017;28;20495;-72
2022/04/27 02:27:50;;;;;;;20.33;12.57;;;;;;;4.07;89.46;102377.63;5073129;28;20116;-71
2022/04/27 02:30:18;;;;;;;20.63;12.77;;;;;;;4.05;90.18;102372.41;5072145;28;20029;-71
2022/04/27 02:32:45;;;;;;;18.85;12.68;;;;;;;4.04;90.40;102374.97;5082107;28;20392;-71
2022/04/27 02:35:11;;;;;;;19.30;13.10;;;;;;;4.06;90.18;102378.47;5092088;28;20028;-71
2022/04/27 02:37:37;;;;;;;19.25;13.52;;;;;;;3.99;90.21;102373.13;5075754;28;20039;-71
2022/04/27 02:40:03;;;;;;;19.42;12.43;;;;;;;3.96;90.55;102383.38;5086009;28;20594;-71
2022/04/27 02:42:29;;;;;;;20.48;13.27;;;;;;;3.95;90.40;102386.75;5074504;28;20077;-71
2022/04/27 02:44:56;;;;;;;22.92;13.23;;;;;;;3.93;91.02;102387.56;5092602;28;20020;-71
2022/04/27 02:47:21;;;;;;;23.38;14.40;;;;;;;3.84;90.92;102382.16;5077833;28;20036;-72
2022/04/27 02:52:30;;;;;;;21.17;13.80;;;;;;;3.79;91.92;102400.06;5090650;28;20093;-72
2022/04/27 02:54:55;;;;;;;26.13;13.55;;;;;;;3.77;91.70;102396.56;5092867;28;20024;-71
2022/04/27 02:57:21;;;;;;;22.27;13.90;;;;;;;3.74;92.21;102394.78;5088883;28;20040;-71
2022/04/27 02:59:47;;;;;;;22.02;12.90;;;;;;;3.74;92.26;102396.47;5072788;28;20066;-71
2022/04/27 03:02:12;;;;;;;19.92;13.07;;;;;;;3.75;91.68;102393.06;5072584;28;20115;-71
2022/04/27 03:04:38;;;;;;;22.20;14.15;;;;;;;3.73;91.90;102394.75;5071740;28;20029;-71
2022/04/27 03:07:03;;;;;;;21.35;14.15;;;;;;;3.68;91.69;102394.59;5084245;28;20039;-71
2022/04/27 03:09:31;;;;;;;23.90;14.15;;;;;;;3.67;91.95;102399.72;5092626;28;20199;-71
2022/04/27 03:11:57;;;;;;;23.50;15.07;;;;;;;3.65;92.18;102393.63;5074419;28;20101;-72
2022/04/27 03:14:22;;;;;;;19.08;13.27;;;;;;;3.64;92.06;102395.34;5072105;28;20495;-71
2022/04/27 03:16:52;;;;;;;20.17;13.85;;;;;;;3.60;92.54;102401.25;5085306;28;20080;-72
2022/04/27 03:19:18;;;;;;;26.45;14.70;;;;;;;3.51;92.46;102398.38;5074203;28;20035;-72
2022/04/27 03:21:43;;;;;;;24.77;15.85;;;;;;;3.40;92.82;102407.47;5084513;28;20032;-71
2022/04/27 03:24:09;;;;;;;24.58;14.27;;;;;;;3.30;92.77;102403.72;5091718;28;20472;-71
2022/04/27 03:26:34;;;;;;;24.77;15.60;;;;;;;3.23;93.89;102404.38;5082739;28;20032;-71
2022/04/27 03:28:59;;;;;;;27.88;16.30;;;;;;;3.30;93.55;102408.88;5072192;28;20476;-71
2022/04/27 03:31:25;;;;;;;24.23;15.93;;;;;;;3.26;93.78;102396.72;5087130;28;20036;-71
2022/04/27 03:33:51;;;;;;;22.23;15.75;;;;;;;3.28;93.32;102395.97;5079003;28;20115;-71
2022/04/27 03:36:16;;;;;;;28.95;16.20;;;;;;;3.25;93.40;102406.16;5075609;28;20135;-71
2022/04/27 03:38:43;;;;;;;24.95;15.70;;;;;;;3.20;93.58;102393.97;5090082;28;20028;-71
2022/04/27 03:41:09;;;;;;;23.17;15.90;;;;;;;3.19;93.69;102408.56;5091230;28;20028;-71
2022/04/27 03:43:35;;;;;;;22.25;14.80;;;;;;;3.17;93.74;102406.75;5091910;28;20028;-71
2022/04/27 03:46:00;;;;;;;25.45;16.40;;;;;;;3.17;94.02;102414.47;5074530;28;20507;-71
2022/04/27 03:48:26;;;;;;;25.08;16.55;;;;;;;3.14;93.53;102406.66;5074005;28;20028;-72
2022/04/27 03:50:51;;;;;;;24.58;15.77;;;;;;;3.10;93.98;102409.97;5089962;28;20356;-71
2022/04/27 03:53:17;;;;;;;23.48;16.10;;;;;;;3.06;93.01;102414.13;5073068;28;20045;-72
2022/04/27 03:55:42;;;;;;;24.45;14.95;;;;;;;2.98;93.49;102413.03;5082668;28;20025;-71
2022/04/27 03:58:07;;;;;;;22.55;14.68;;;;;;;2.91;93.68;102426.50;5071601;28;20036;-71
2022/04/27 04:00:33;;;;;;;27.60;16.15;;;;;;;2.83;94.29;102421.09;5084174;28;20032;-71
2022/04/27 04:03:03;;;;;;;24.35;15.65;;;;;;;2.85;94.22;102429.78;5091979;28;20076;-71
2022/04/27 04:05:29;;;;;;;24.27;16.33;;;;;;;2.85;94.21;102429.78;5092217;28;20020;-71
2022/04/27 04:07:55;;;;;;;24.52;15.93;;;;;;;2.87;94.82;102432.38;5078700;28;20365;-71
2022/04/27 04:10:20;;;;;;;27.15;15.95;;;;;;;2.86;94.78;102435.81;5082984;28;20480;-71
2022/04/27 04:12:46;;;;;;;22.60;15.20;;;;;;;2.81;94.84;102433.94;5077373;28;20035;-71
2022/04/27 04:15:12;;;;;;;22.55;15.60;;;;;;;2.83;94.12;102443.41;5070826;28;20032;-72
2022/04/27 04:17:40;;;;;;;25.45;15.88;;;;;;;2.84;94.73;102448.59;5071425;28;20032;-71
2022/04/27 04:20:06;;;;;;;28.55;16.13;;;;;;;2.88;95.06;102445.34;5071556;28;20036;-71
2022/04/27 04:22:32;;;;;;;22.88;15.57;;;;;;;2.83;94.53;102434.00;5077537;28;20095;-71
2022/04/27 04:30:25;;;;;;;26.75;15.88;;;;;;;2.77;94.05;102442.38;5071329;28;20036;-71
2022/04/27 04:32:50;;;;;;;23.80;15.15;;;;;;;2.79;94.90;102455.31;5082675;28;20028;-71
2022/04/27 04:35:16;;;;;;;25.35;16.55;;;;;;;2.74;95.03;102441.41;5075130;28;20052;-71
2022/04/27 04:37:41;;;;;;;26.38;15.30;;;;;;;2.77;95.05;102462.09;5074346;28;20033;-71
2022/04/27 04:40:07;;;;;;;24.15;15.98;;;;;;;2.76;94.79;102466.38;5090860;28;20357;-71
2022/04/27 04:42:35;;;;;;;25.80;16.42;;;;;;;2.78;94.94;102464.75;5088529;28;20032;-71
2022/04/27 04:45:00;;;;;;;29.98;16.65;;;;;;;2.78;95.20;102456.16;5073634;28;20396;-71
2022/04/27 04:47:26;;;;;;;25.20;16.20;;;;;;;2.83;94.60;102466.59;5076246;28;20024;-71
2022/04/27 04:49:52;;;;;;;26.67;15.20;;;;;;;2.86;94.60;102470.16;5072913;28;20174;-71
2022/04/27 04:52:17;;;;;;;26.35;16.77;;;;;;;2.88;94.23;102472.78;5072094;28;20182;-71
2022/04/27 04:54:42;;;;;;;27.30;16.13;;;;;;;2.86;94.64;102472.72;5089622;28;20034;-71
2022/04/27 04:57:08;;;;;;;28.17;16.63;;;;;;;2.91;94.82;102476.34;5074159;28;20029;-71
2022/04/27 04:59:33;;;;;;;24.95;16.08;;;;;;;2.93;94.64;102477.25;5071116;28;20036;-71
2022/04/27 05:01:58;;;;;;;23.02;15.18;;;;;;;2.98;94.50;102483.47;5081196;28;20430;-71
2022/04/27 05:04:23;;;;;;;28.15;16.05;;;;;;;3.01;94.40;102474.97;5073905;28;20035;-71
2022/04/27 05:06:49;;;;;;;26.63;16.40;;;;;;;3.07;94.57;102480.31;5092124;28;20024;-71
2022/04/27 05:09:14;;;;;;;25.95;16.52;;;;;;;3.11;94.85;102482.19;5094466;28;20115;-71
2022/04/27 05:11:39;;;;;;;26.23;16.58;;;;;;;3.12;95.35;102483.91;5082119;28;20082;-71
2022/04/27 05:14:04;;;;;;;27.05;16.42;;;;;;;3.20;95.03;102495.34;5074491;28;20040;-71
2022/04/27 05:16:32;;;;;;;27.70;17.00;;;;;;;3.26;95.15;102487.81;5074692;28;20032;-71
2022/04/27 05:18:58;;;;;;;27.08;16.50;;;;;;;3.27;95.11;102479.28;5076931;28;20021;-71
2022/04/27 05:21:23;;;;;;;27.17;16.38;;;;;;;3.36;95.42;102485.53;5074644;28;20048;-71
2022/04/27 05:23:49;;;;;;;26.17;17.02;;;;;;;3.47;95.30;102492.81;5074345;28;20036;-71
2022/04/27 05:26:14;;;;;;;23.75;17.02;;;;;;;3.56;95.66;102493.91;5073467;28;20041;-71
2022/04/27 05:34:07;;;;;;;30.35;17.00;;;;;;;3.83;95.92;102502.53;5074295;28;20039;-71
2022/04/27 05:36:33;;;;;;;24.67;17.02;;;;;;;3.86;96.43;102506.88;5074209;28;20108;-71
2022/04/27 05:38:58;;;;;;;28.40;17.08;;;;;;;3.97;96.03;102513.28;5088399;28;20028;-71
2022/04/27 05:41:23;;;;;;;23.15;15.88;;;;;;;4.03;95.81;102512.59;5086933;28;20055;-71
2022/04/27 05:43:48;;;;;;;23.15;15.40;;;;;;;4.11;96.08;102511.97;5092738;28;20388;-71
2022/04/27 05:46:14;;;;;;;28.23;16.25;;;;;;;4.22;95.92;102517.47;5083452;28;20045;-71
2022/04/27 05:48:39;;;;;;;24.60;15.80;;;;;;;4.33;95.55;102513.47;5088003;28;20153;-71
2022/04/27 05:51:05;;;;;;;27.88;15.93;;;;;;;4.43;95.65;102520.66;5094031;28;20048;-71
2022/04/27 05:53:31;;;;;;;25.48;15.55;;;;;;;4.52;95.51;102514.03;5091054;28;20041;-71
2022/04/27 05:55:56;;;;;;;26.50;14.70;;;;;;;4.63;95.11;102517.75;5086705;28;20035;-71
2022/04/27 05:58:21;;;;;;;23.60;14.80;;;;;;;4.73;94.51;102522.34;5080844;28;20036;-71
2022/04/27 06:00:46;;;;;;;26.83;14.52;;;;;;;4.79;94.32;102511.31;5093014;28;20032;-71
2022/04/27 06:03:12;;;;;;;27.55;15.70;;;;;;;4.89;93.38;102523.63;5093741;28;20040;-71
2022/04/27 06:05:37;;;;;;;21.33;13.73;;;;;;;4.97;93.45;102527.31;5093806;28;20017;-71
2022/04/27 06:08:03;;;;;;;20.48;14.95;;;;;;;5.04;93.45;102526.63;5093223;28;20023;-71
2022/04/27 06:10:28;;;;;;;20.77;13.30;;;;;;;5.10;93.50;102521.63;5094070;28;20028;-71
2022/04/27 06:12:53;;;;;;;19.10;13.82;;;;;;;5.20;93.39;102527.00;5093646;28;20042;-71
2022/04/27 06:15:19;;;;;;;20.42;14.20;;;;;;;5.27;92.81;102534.13;5074415;28;20021;-71
2022/04/27 06:17:44;;;;;;;22.52;13.35;;;;;;;5.33;91.86;102535.16;5072988;28;20036;-71
2022/04/27 06:20:10;;;;;;;23.23;14.02;;;;;;;5.41;91.19;102540.50;5074556;28;20037;-71
2022/04/27 06:22:36;;;;;;;21.42;13.70;;;;;;;5.50;90.35;102534.69;5072632;28;20036;-71
2022/04/27 06:25:03;;;;;;;19.75;12.30;;;;;;;5.58;88.95;102536.59;5075179;28;20028;-71
2022/04/27 06:27:29;;;;;;;19.85;12.25;;;;;;;5.64;88.62;102541.06;5084193;28;20128;-71
2022/04/27 06:29:54;;;;;;;19.65;12.02;;;;;;;5.71;87.32;102542.94;5073532;28;20471;-71
2022/04/27 06:32:19;;;;;;;24.45;13.50;;;;;;;5.80;87.16;102542.31;5072988;28;20031;-72
2022/04/27 06:34:44;;;;;;;22.27;12.85;;;;;;;5.83;86.39;102538.06;5072190;28;20028;-72
2022/04/27 06:37:10;;;;;;;22.33;12.75;;;;;;;5.91;86.69;102545.13;5073127;28;20036;-72
2022/04/27 06:39:38;;;;;;;19.02;11.68;;;;;;;6.02;86.25;102552.34;5074578;28;20384;-72
2022/04/27 06:42:04;;;;;;;23.98;12.27;;;;;;;6.10;85.70;102552.50;5091959;28;20031;-72
2022/04/27 06:44:29;;;;;;;20.55;12.02;;;;;;;6.19;84.01;102552.72;5078591;28;20035;-72
2022/04/27 06:46:54;;;;;;;23.27;12.20;;;;;;;6.27;84.56;102553.75;5079339;28;20028;-73
2022/04/27 06:49:20;;;;;;;22.35;12.80;;;;;;;6.37;85.19;102551.34;5073096;28;20075;-72
2022/04/27 06:51:45;;;;;;;19.33;12.77;;;;;;;6.46;84.97;102557.59;5073401;28;20024;-72
2022/04/27 06:54:10;;;;;;;22.15;13.23;;;;;;;6.53;84.55;102558.59;5078826;28;20032;-72
2022/04/27 06:56:35;;;;;;;22.20;12.93;;;;;;;6.63;84.02;102560.53;5090843;28;20032;-72
2022/04/27 06:59:00;;;;;;;19.00;12.63;;;;;;;6.71;84.53;102560.72;5092899;28;20046;-72
2022/04/27 07:01:26;;;;;;;19.90;12.63;;;;;;;6.81;83.14;102567.81;5074377;28;20033;-72
2022/04/27 07:03:54;;;;;;;16.33;11.68;;;;;;;6.87;82.55;102565.34;5079707;28;20030;-72
2022/04/27 07:06:21;;;;;;;22.45;12.13;;;;;;;6.95;82.76;102563.75;5092583;28;20056;-72
2022/04/27 07:08:46;;;;;;;19.48;11.60;;;;;;;7.02;82.43;102570.81;5092502;28;20044;-72
2022/04/27 07:11:12;;;;;;;18.98;11.48;;;;;;;7.10;80.88;102570.97;5091742;28;20499;-72
2022/04/27 07:13:37;;;;;;;19.45;11.40;;;;;;;7.13;80.44;102563.25;5091225;28;20056;-72
2022/04/27 07:16:03;;;;;;;21.40;12.20;;;;;;;7.24;81.17;102573.81;5076822;28;20045;-72
2022/04/27 07:18:29;;;;;;;23.30;12.70;;;;;;;7.30;80.36;102576.53;5089413;28;20036;-71
2022/04/27 07:20:54;;;;;;;18.60;12.35;;;;;;;7.33;81.15;102560.16;5092493;28;20016;-71
2022/04/27 07:23:19;;;;;;;18.67;11.07;;;;;;;7.47;80.24;102569.88;5092345;28;20020;-71
2022/04/27 07:25:45;;;;;;;16.38;10.05;;;;;;;7.51;78.28;102565.63;5082034;28;20032;-72
2022/04/27 07:28:10;;;;;;;17.25;11.15;;;;;;;7.66;79.31;102581.47;5074086;28;20518;-72
2022/04/27 07:30:35;;;;;;;22.80;10.68;;;;;;;7.76;77.94;102577.28;5071842;28;20036;-71
2022/04/27 07:33:01;;;;;;;16.08;11.15;;;;;;;7.83;77.85;102584.31;5071645;28;20400;-72
2022/04/27 07:35:26;;;;;;;14.57;10.50;;;;;;;7.87;76.73;102574.84;5073023;28;20069;-72
2022/04/27 07:37:51;;;;;;;16.65;10.55;;;;;;;7.93;76.75;102577.53;5071724;28;20391;-71
2022/04/27 07:40:16;;;;;;;14.65;9.82;;;;;;;8.09;76.60;102576.06;5071727;28;20361;-71
2022/04/27 07:42:42;;;;;;;16.40;9.07;;;;;;;8.21;73.34;102586.63;5071725;28;20032;-71
2022/04/27 07:45:07;;;;;;;15.43;9.00;;;;;;;8.34;72.94;102585.94;5071101;28;20051;-71
2022/04/27 07:47:43;;;;;;;14.82;8.10;;;;;;;8.45;72.05;102580.91;5073907;28;20077;-72
2022/04/27 07:50:10;;;;;;;13.93;7.43;;;;;;;8.52;69.35;102587.06;5072812;28;20024;-72
2022/04/27 07:52:36;;;;;;;12.35;7.40;;;;;;;8.59;69.95;102583.69;5070864;28;20124;-71
2022/04/27 07:55:01;;;;;;;13.55;7.05;;;;;;;8.70;68.93;102586.41;5071750;28;20104;-71
2022/04/27 07:57:31;;;;;;;10.57;6.97;;;;;;;8.79;67.47;102596.94;5071850;28;20094;-72
2022/04/27 07:59:56;;;;;;;13.90;8.40;;;;;;;8.84;68.29;102583.13;5072641;28;20103;-76
2022/04/27 08:02:21;;;;;;;10.52;7.13;;;;;;;8.94;68.28;102591.91;5071802;28;20079;-71
2022/04/27 08:04:47;;;;;;;10.35;6.25;;;;;;;9.07;67.29;102592.91;5071708;28;20055;-71
2022/04/27 08:07:12;;;;;;;8.23;6.25;;;;;;;9.20;67.03;102593.94;5070829;28;20047;-72
2022/04/27 08:09:37;;;;;;;14.05;6.90;;;;;;;9.21;63.74;102595.66;5071652;28;20024;-71
2022/04/27 08:12:03;;;;;;;9.43;6.90;;;;;;;9.27;64.70;102593.13;5071414;28;20476;-71
2022/04/27 08:14:28;;;;;;;10.77;6.80;;;;;;;9.32;64.62;102599.25;5082524;28;20036;-71
2022/04/27 08:16:54;;;;;;;12.90;6.75;;;;;;;9.44;65.21;102603.69;5091483;28;20391;-71
2022/04/27 08:19:20;;;;;;;11.88;6.68;;;;;;;9.50;64.75;102603.75;5089908;28;20078;-71
2022/04/27 08:21:45;;;;;;;10.55;6.80;;;;;;;9.51;63.42;102595.94;5078970;28;20020;-70
2022/04/27 08:24:11;;;;;;;11.10;6.72;;;;;;;9.60;63.43;102613.38;5071467;28;20108;-71
2022/04/27 08:26:37;;;;;;;11.60;6.93;;;;;;;9.69;61.17;102604.78;5071539;28;20029;-71
2022/04/27 08:29:02;;;;;;;8.90;6.88;;;;;;;9.79;62.10;102609.22;5072953;28;20028;-71
2022/04/27 08:31:27;;;;;;;11.82;6.85;;;;;;;9.89;61.18;102607.56;5081692;28;20047;-71
2022/04/27 08:33:53;;;;;;;10.63;6.15;;;;;;;9.92;59.42;102608.44;5086291;28;20089;-72
2022/04/27 08:36:18;;;;;;;14.00;6.88;;;;;;;10.03;63.31;102612.00;5077075;28;20386;-71
2022/04/27 08:38:43;;;;;;;10.25;6.13;;;;;;;10.15;60.55;102605.13;5080546;28;20031;-71
2022/04/27 08:41:09;;;;;;;11.65;6.45;;;;;;;10.23;58.38;102604.28;5073378;28;20029;-71
2022/04/27 08:43:34;;;;;;;11.95;6.93;;;;;;;10.29;59.78;102611.31;5074547;28;20056;-71
2022/04/27 08:46:03;;;;;;;8.38;5.80;;;;;;;10.38;60.35;102614.00;5075524;28;20081;-71
2022/04/27 08:48:28;;;;;;;8.25;5.88;;;;;;;10.49;59.31;102604.47;5074653;28;20027;-71
2022/04/27 08:50:54;;;;;;;8.75;5.68;;;;;;;10.55;55.52;102620.16;5075134;28;20454;-71
2022/04/27 08:53:20;;;;;;;10.43;5.88;;;;;;;10.58;57.48;102613.22;5074651;28;20066;-71
2022/04/27 08:55:45;;;;;;;12.48;6.13;;;;;;;10.67;57.90;102613.28;5074026;28;20074;-71
2022/04/27 08:58:14;;;;;;;9.07;5.30;;;;;;;10.74;56.11;102615.91;5074993;28;20379;-71
2022/04/27 09:00:40;;;;;;;9.50;5.20;;;;;;;10.86;56.86;102629.88;5075005;28;20054;-71
2022/04/27 09:03:34;;;;;;;9.55;4.95;;;;;;;11.01;57.68;102615.13;5074165;28;20129;-71
2022/04/27 09:06:05;;;;;;;6.15;4.38;;;;;;;11.13;53.54;102613.44;5075160;28;20098;-71
2022/04/27 09:08:41;;;;;;;6.90;4.70;;;;;;;11.22;53.47;102618.69;5074770;28;20478;-71
2022/04/27 09:11:25;;;;;;;11.70;6.25;;;;;;;11.30;53.46;102606.50;5074110;28;20380;-71
2022/04/27 09:13:56;;;;;;;9.57;5.88;;;;;;;11.35;52.60;102611.75;5074715;28;20055;-71
2022/04/27 09:16:23;;;;;;;9.18;6.38;;;;;;;11.30;53.79;102619.53;5073936;28;20451;-71
2022/04/27 09:21:53;;;;;;;7.45;5.95;;;;;;;11.61;54.99;102619.59;5074659;28;20102;-71
2022/04/27 09:24:18;;;;;;;8.98;6.20;;;;;;;11.65;52.01;102616.13;5083868;28;20031;-71
2022/04/27 09:26:44;;;;;;;9.65;6.00;;;;;;;11.79;53.22;102614.34;5081949;28;20195;-71
2022/04/27 09:29:23;;;;;;;9.30;6.82;;;;;;;11.91;51.70;102613.53;5093454;28;20439;-71
2022/04/27 09:31:55;;;;;;;9.38;6.47;;;;;;;12.05;52.96;102621.34;5073687;28;20025;-71
2022/04/27 09:34:29;;;;;;;9.57;7.18;;;;;;;12.10;50.39;102617.00;5074415;28;20054;-71
2022/04/27 09:36:59;;;;;;;9.93;6.55;;;;;;;12.18;50.46;102610.00;5076896;28;20031;-71
2022/04/27 09:39:25;;;;;;;11.13;6.75;;;;;;;12.22;49.56;102618.69;5093484;28;20551;-71
2022/04/27 09:41:51;;;;;;;9.75;6.70;;;;;;;12.23;49.67;102613.50;5094528;28;20048;-71
2022/04/27 09:44:26;;;;;;;8.77;6.53;;;;;;;12.33;52.83;102611.72;5094427;28;20029;-70
2022/04/27 09:46:51;;;;;;;9.98;6.88;;;;;;;12.48;49.34;102613.41;5081076;28;20028;-71
2022/04/27 09:49:17;;;;;;;12.63;7.43;;;;;;;12.44;46.54;102616.91;5073861;28;20033;-71
2022/04/27 09:51:50;;;;;;;9.15;6.80;;;;;;;12.46;50.87;102620.38;5072788;28;20060;-71
2022/04/27 09:54:21;;;;;;;8.00;6.63;;;;;;;12.51;50.46;102616.00;5074132;28;20036;-71
2022/04/27 09:56:54;;;;;;;9.82;6.88;;;;;;;12.68;51.39;102615.94;5082098;28;20040;-71
2022/04/27 09:59:22;;;;;;;11.70;6.97;;;;;;;12.86;47.62;102621.13;5088566;28;20153;-71
2022/04/27 10:01:53;;;;;;;13.20;9.05;;;;;;;12.94;49.54;102605.38;5084053;28;20046;-71
2022/04/27 10:04:21;;;;;;;12.55;7.88;;;;;;;13.04;47.02;102613.16;5078334;28;20373;-71
2022/04/27 10:06:47;;;;;;;12.55;8.60;;;;;;;13.03;46.19;102616.66;5074311;28;20071;-71
2022/04/27 10:09:13;;;;;;;12.00;9.10;;;;;;;13.09;47.65;102610.53;5073505;28;20026;-71
2022/04/27 10:11:40;;;;;;;12.35;7.72;;;;;;;13.20;46.32;102620.94;5073340;28;20040;-71
2022/04/27 10:14:06;;;;;;;13.52;7.97;;;;;;;13.26;48.78;102613.06;5072734;28;20025;-71
2022/04/27 10:16:32;;;;;;;11.82;7.57;;;;;;;13.41;46.91;102610.34;5073317;28;20032;-72
2022/04/27 10:18:57;;;;;;;11.60;8.93;;;;;;;13.55;47.37;102613.72;5073587;28;20031;-72
2022/04/27 10:21:55;;;;;;;11.98;8.38;;;;;;;13.68;47.50;102611.88;5072549;28;20469;-72
2022/04/27 10:24:41;;;;;;;13.60;8.55;;;;;;;13.86;47.88;102604.72;5077015;28;20317;-72
2022/04/27 10:27:33;;;;;;;11.30;7.55;;;;;;;14.01;47.04;102599.34;5072527;28;20028;-72
2022/04/27 10:30:02;;;;;;;11.98;7.53;;;;;;;14.16;45.74;102601.84;5069593;28;20040;-72
2022/04/27 10:32:41;;;;;;;10.95;7.75;;;;;;;14.34;47.01;102599.88;5077389;28;20070;-72
2022/04/27 10:35:12;;;;;;;10.65;8.35;;;;;;;14.55;46.23;102598.78;5072371;28;20029;-72
2022/04/27 10:37:51;;;;;;;13.68;7.78;;;;;;;14.60;46.20;102605.72;5072978;28;20037;-72
2022/04/27 10:40:37;;;;;;;13.20;8.20;;;;;;;14.43;45.81;102594.53;5072537;28;20028;-72
2022/04/27 10:43:13;;;;;;;12.60;9.30;;;;;;;14.20;46.34;102603.53;5072046;28;20107;-72
2022/04/27 10:45:44;;;;;;;11.38;8.27;;;;;;;14.23;46.13;102590.38;5072850;28;20085;-72
2022/04/27 10:48:23;;;;;;;13.63;8.25;;;;;;;14.52;46.27;102599.72;5071992;28;20067;-73
2022/04/27 10:51:01;;;;;;;9.68;7.60;;;;;;;14.82;46.04;102584.47;5073019;28;20111;-72
2022/04/27 10:53:28;;;;;;;12.25;8.38;;;;;;;15.09;44.26;102601.59;5072777;28;20500;-72
2022/04/27 10:55:56;;;;;;;11.23;8.02;;;;;;;15.11;43.00;102592.81;5071918;28;20431;-72
2022/04/27 10:58:35;;;;;;;8.98;7.68;;;;;;;15.17;45.01;102592.72;5054572;28;20534;-72
2022/04/27 11:01:01;;;;;;;15.50;8.43;;;;;;;15.34;43.87;102594.22;5072822;28;20025;-72
2022/04/27 11:03:36;;;;;;;10.88;8.82;;;;;;;15.35;40.18;102594.19;5071311;28;20036;-72
2022/04/27 11:06:10;;;;;;;9.35;8.38;;;;;;;15.47;43.93;102590.50;5072498;28;20028;-72
2022/04/27 11:09:08;;;;;;;14.23;8.55;;;;;;;15.87;43.61;102590.72;5072341;28;20502;-72
2022/04/27 11:12:05;;;;;;;10.15;9.07;;;;;;;16.18;41.61;102586.66;5072555;28;20055;-72
2022/04/27 11:14:34;;;;;;;13.23;8.40;;;;;;;16.60;42.51;102580.53;5067282;28;20048;-73
2022/04/27 11:17:00;;;;;;;11.77;8.00;;;;;;;16.75;40.98;102582.00;5071971;28;20085;-72
2022/04/27 11:19:39;;;;;;;9.05;7.53;;;;;;;16.96;41.97;102577.16;5072123;28;20115;-73
2022/04/27 11:22:15;;;;;;;11.43;7.63;;;;;;;17.39;42.83;102570.88;5078808;28;20468;-72
2022/04/27 11:24:46;;;;;;;10.10;8.07;;;;;;;17.74;38.54;102577.91;5071169;28;20119;-73
2022/04/27 11:27:12;;;;;;;10.98;7.78;;;;;;;17.61;39.16;102579.97;5072298;28;20052;-73
2022/04/27 11:29:38;;;;;;;10.68;7.47;;;;;;;17.08;39.62;102583.00;5072069;28;20055;-73
2022/04/27 11:32:07;;;;;;;10.20;7.57;;;;;;;16.49;40.30;102574.63;5071193;28;20035;-73
2022/04/27 11:34:33;;;;;;;10.48;8.10;;;;;;;16.00;41.21;102591.38;5072182;28;20036;-72
2022/04/27 11:37:13;;;;;;;10.77;7.75;;;;;;;15.78;43.61;102590.00;5072300;28;20021;-73
2022/04/27 11:39:39;;;;;;;10.68;7.82;;;;;;;15.79;42.22;102591.75;5075157;28;20028;-75